sensor_id;sensor_type;location;lat;lon;timestamp;P1;durP1;ratioP1;P2;durP2;ratioP2
18887;SDS011;9576;47.792;9.628;2023-06-24T00:00:45;10.13;;;5.63;;
18887;SDS011;9576;47.792;9.628;2023-06-24T00:03:47;10.38;;;5.80;;
18887;SDS011;9576;47.792;9.628;2023-06-24T00:06:53;8.88;;;5.20;;
18887;SDS011;9576;47.792;9.628;2023-06-24T00:10:00;7.72;;;4.95;;
18887;SDS011;9576;47.792;9.628;2023-06-24T00:16:05;9.20;;;5.72;;
18887;SDS011;9576;47.792;9.628;2023-06-24T00:19:07;10.35;;;5.25;;
18887;SDS011;9576;47.792;9.628;2023-06-24T00:22:09;10.60;;;5.18;;
18887;SDS011;9576;47.792;9.628;2023-06-24T00:25:12;8.65;;;5.55;;
18887;SDS011;9576;47.792;9.628;2023-06-24T00:28:14;8.48;;;5.18;;
18887;SDS011;9576;47.792;9.628;2023-06-24T00:31:16;10.05;;;5.50;;
18887;SDS011;9576;47.792;9.628;2023-06-24T00:34:18;14.43;;;4.85;;
18887;SDS011;9576;47.792;9.628;2023-06-24T00:37:20;10.82;;;4.93;;
18887;SDS011;9576;47.792;9.628;2023-06-24T00:40:23;10.13;;;5.35;;
18887;SDS011;9576;47.792;9.628;2023-06-24T00:43:25;10.38;;;6.00;;
18887;SDS011;9576;47.792;9.628;2023-06-24T00:46:28;7.95;;;4.88;;
18887;SDS011;9576;47.792;9.628;2023-06-24T00:49:33;10.18;;;6.07;;
18887;SDS011;9576;47.792;9.628;2023-06-24T00:52:35;8.82;;;5.07;;
18887;SDS011;9576;47.792;9.628;2023-06-24T00:55:40;8.13;;;5.23;;
18887;SDS011;9576;47.792;9.628;2023-06-24T00:58:42;11.15;;;5.40;;
18887;SDS011;9576;47.792;9.628;2023-06-24T01:01:44;7.70;;;4.95;;
18887;SDS011;9576;47.792;9.628;2023-06-24T01:04:47;10.18;;;5.55;;
18887;SDS011;9576;47.792;9.628;2023-06-24T01:07:52;9.52;;;5.70;;
18887;SDS011;9576;47.792;9.628;2023-06-24T01:10:57;8.57;;;5.30;;
18887;SDS011;9576;47.792;9.628;2023-06-24T01:13:59;9.90;;;5.45;;
18887;SDS011;9576;47.792;9.628;2023-06-24T01:17:03;8.77;;;5.45;;
18887;SDS011;9576;47.792;9.628;2023-06-24T01:20:11;8.07;;;5.05;;
18887;SDS011;9576;47.792;9.628;2023-06-24T01:23:42;11.43;;;5.47;;
18887;SDS011;9576;47.792;9.628;2023-06-24T01:27:19;9.50;;;5.35;;
18887;SDS011;9576;47.792;9.628;2023-06-24T01:30:45;9.98;;;5.85;;
18887;SDS011;9576;47.792;9.628;2023-06-24T01:34:06;11.32;;;4.85;;
18887;SDS011;9576;47.792;9.628;2023-06-24T01:37:14;12.88;;;4.93;;
18887;SDS011;9576;47.792;9.628;2023-06-24T01:40:20;8.30;;;5.03;;
18887;SDS011;9576;47.792;9.628;2023-06-24T01:43:27;10.05;;;5.38;;
18887;SDS011;9576;47.792;9.628;2023-06-24T01:46:29;14.20;;;5.78;;
18887;SDS011;9576;47.792;9.628;2023-06-24T01:49:32;8.93;;;5.47;;
18887;SDS011;9576;47.792;9.628;2023-06-24T01:52:39;10.85;;;5.78;;
18887;SDS011;9576;47.792;9.628;2023-06-24T01:55:44;9.25;;;5.35;;
18887;SDS011;9576;47.792;9.628;2023-06-24T01:58:47;8.10;;;5.18;;
18887;SDS011;9576;47.792;9.628;2023-06-24T02:01:53;8.52;;;5.65;;
18887;SDS011;9576;47.792;9.628;2023-06-24T02:04:57;7.30;;;5.07;;
18887;SDS011;9576;47.792;9.628;2023-06-24T02:08:02;11.43;;;6.00;;
18887;SDS011;9576;47.792;9.628;2023-06-24T02:11:05;8.10;;;5.10;;
18887;SDS011;9576;47.792;9.628;2023-06-24T02:14:09;10.45;;;5.25;;
18887;SDS011;9576;47.792;9.628;2023-06-24T02:17:12;12.23;;;5.20;;
18887;SDS011;9576;47.792;9.628;2023-06-24T02:20:17;9.85;;;5.43;;
18887;SDS011;9576;47.792;9.628;2023-06-24T02:23:21;11.60;;;6.03;;
18887;SDS011;9576;47.792;9.628;2023-06-24T02:26:24;12.30;;;6.38;;
18887;SDS011;9576;47.792;9.628;2023-06-24T02:29:27;11.48;;;5.93;;
18887;SDS011;9576;47.792;9.628;2023-06-24T02:32:31;10.40;;;5.47;;
18887;SDS011;9576;47.792;9.628;2023-06-24T02:35:34;15.43;;;5.15;;
18887;SDS011;9576;47.792;9.628;2023-06-24T02:38:36;12.30;;;5.53;;
18887;SDS011;9576;47.792;9.628;2023-06-24T02:41:38;24.55;;;5.93;;
18887;SDS011;9576;47.792;9.628;2023-06-24T02:44:40;9.02;;;5.38;;
18887;SDS011;9576;47.792;9.628;2023-06-24T02:47:43;17.20;;;5.63;;
18887;SDS011;9576;47.792;9.628;2023-06-24T02:53:51;8.00;;;4.85;;
18887;SDS011;9576;47.792;9.628;2023-06-24T02:56:53;8.93;;;5.15;;
18887;SDS011;9576;47.792;9.628;2023-06-24T02:59:58;8.05;;;5.35;;
18887;SDS011;9576;47.792;9.628;2023-06-24T03:03:00;9.63;;;5.32;;
18887;SDS011;9576;47.792;9.628;2023-06-24T03:06:04;12.50;;;6.30;;
18887;SDS011;9576;47.792;9.628;2023-06-24T03:09:06;14.20;;;5.95;;
18887;SDS011;9576;47.792;9.628;2023-06-24T03:12:09;14.90;;;5.93;;
18887;SDS011;9576;47.792;9.628;2023-06-24T03:15:12;16.92;;;5.13;;
18887;SDS011;9576;47.792;9.628;2023-06-24T03:18:14;16.55;;;5.55;;
18887;SDS011;9576;47.792;9.628;2023-06-24T03:21:17;13.50;;;4.78;;
18887;SDS011;9576;47.792;9.628;2023-06-24T03:24:19;7.68;;;4.90;;
18887;SDS011;9576;47.792;9.628;2023-06-24T03:27:21;8.25;;;5.40;;
18887;SDS011;9576;47.792;9.628;2023-06-24T03:30:23;8.73;;;5.18;;
18887;SDS011;9576;47.792;9.628;2023-06-24T03:33:25;23.90;;;5.97;;
18887;SDS011;9576;47.792;9.628;2023-06-24T03:36:29;15.38;;;5.82;;
18887;SDS011;9576;47.792;9.628;2023-06-24T03:39:30;11.32;;;5.63;;
18887;SDS011;9576;47.792;9.628;2023-06-24T03:42:32;8.02;;;5.18;;
18887;SDS011;9576;47.792;9.628;2023-06-24T03:45:34;16.55;;;6.00;;
18887;SDS011;9576;47.792;9.628;2023-06-24T03:48:36;13.70;;;7.20;;
18887;SDS011;9576;47.792;9.628;2023-06-24T03:51:40;19.75;;;6.15;;
18887;SDS011;9576;47.792;9.628;2023-06-24T03:54:42;9.23;;;5.38;;
18887;SDS011;9576;47.792;9.628;2023-06-24T03:57:44;10.40;;;5.90;;
18887;SDS011;9576;47.792;9.628;2023-06-24T04:00:46;11.45;;;5.90;;
18887;SDS011;9576;47.792;9.628;2023-06-24T04:03:49;8.30;;;5.60;;
18887;SDS011;9576;47.792;9.628;2023-06-24T04:06:52;16.05;;;6.05;;
18887;SDS011;9576;47.792;9.628;2023-06-24T04:09:55;16.02;;;6.15;;
18887;SDS011;9576;47.792;9.628;2023-06-24T04:12:57;12.38;;;6.47;;
18887;SDS011;9576;47.792;9.628;2023-06-24T04:15:59;11.88;;;5.38;;
18887;SDS011;9576;47.792;9.628;2023-06-24T04:19:01;10.32;;;5.63;;
18887;SDS011;9576;47.792;9.628;2023-06-24T04:22:04;11.23;;;6.05;;
18887;SDS011;9576;47.792;9.628;2023-06-24T04:25:06;12.68;;;5.32;;
18887;SDS011;9576;47.792;9.628;2023-06-24T04:28:09;9.30;;;5.93;;
18887;SDS011;9576;47.792;9.628;2023-06-24T04:31:10;9.35;;;5.30;;
18887;SDS011;9576;47.792;9.628;2023-06-24T04:34:12;19.60;;;5.72;;
18887;SDS011;9576;47.792;9.628;2023-06-24T04:37:16;10.52;;;5.93;;
18887;SDS011;9576;47.792;9.628;2023-06-24T04:40:18;13.88;;;7.13;;
18887;SDS011;9576;47.792;9.628;2023-06-24T04:43:20;10.38;;;6.65;;
18887;SDS011;9576;47.792;9.628;2023-06-24T04:46:22;11.23;;;6.43;;
18887;SDS011;9576;47.792;9.628;2023-06-24T04:49:24;13.27;;;6.95;;
18887;SDS011;9576;47.792;9.628;2023-06-24T04:52:27;9.10;;;6.38;;
18887;SDS011;9576;47.792;9.628;2023-06-24T04:55:29;11.23;;;6.35;;
18887;SDS011;9576;47.792;9.628;2023-06-24T04:58:31;15.20;;;6.35;;
18887;SDS011;9576;47.792;9.628;2023-06-24T05:01:33;11.25;;;5.78;;
18887;SDS011;9576;47.792;9.628;2023-06-24T05:04:35;11.10;;;6.70;;
18887;SDS011;9576;47.792;9.628;2023-06-24T05:07:38;13.52;;;6.30;;
18887;SDS011;9576;47.792;9.628;2023-06-24T05:10:40;11.88;;;5.72;;
18887;SDS011;9576;47.792;9.628;2023-06-24T05:13:42;12.65;;;5.93;;
18887;SDS011;9576;47.792;9.628;2023-06-24T05:16:45;16.15;;;7.07;;
18887;SDS011;9576;47.792;9.628;2023-06-24T05:19:46;13.32;;;7.50;;
18887;SDS011;9576;47.792;9.628;2023-06-24T05:22:50;13.82;;;6.25;;
18887;SDS011;9576;47.792;9.628;2023-06-24T05:25:52;16.17;;;6.60;;
18887;SDS011;9576;47.792;9.628;2023-06-24T05:28:53;10.52;;;6.00;;
18887;SDS011;9576;47.792;9.628;2023-06-24T05:31:55;16.67;;;6.80;;
18887;SDS011;9576;47.792;9.628;2023-06-24T05:34:58;8.25;;;5.88;;
18887;SDS011;9576;47.792;9.628;2023-06-24T05:38:02;12.57;;;5.65;;
18887;SDS011;9576;47.792;9.628;2023-06-24T05:41:03;8.85;;;4.90;;
18887;SDS011;9576;47.792;9.628;2023-06-24T05:44:06;9.25;;;5.00;;
18887;SDS011;9576;47.792;9.628;2023-06-24T05:47:09;9.25;;;4.45;;
18887;SDS011;9576;47.792;9.628;2023-06-24T05:50:11;8.45;;;3.95;;
18887;SDS011;9576;47.792;9.628;2023-06-24T05:53:15;6.13;;;3.63;;
18887;SDS011;9576;47.792;9.628;2023-06-24T05:56:17;8.63;;;3.78;;
18887;SDS011;9576;47.792;9.628;2023-06-24T05:59:19;6.75;;;4.03;;
18887;SDS011;9576;47.792;9.628;2023-06-24T06:02:21;6.90;;;3.90;;
18887;SDS011;9576;47.792;9.628;2023-06-24T06:05:22;5.43;;;3.55;;
18887;SDS011;9576;47.792;9.628;2023-06-24T06:08:26;6.65;;;3.83;;
18887;SDS011;9576;47.792;9.628;2023-06-24T06:11:28;6.47;;;3.95;;
18887;SDS011;9576;47.792;9.628;2023-06-24T06:14:30;8.05;;;4.05;;
18887;SDS011;9576;47.792;9.628;2023-06-24T06:17:32;6.47;;;3.60;;
18887;SDS011;9576;47.792;9.628;2023-06-24T06:20:34;7.20;;;4.32;;
18887;SDS011;9576;47.792;9.628;2023-06-24T06:23:37;9.77;;;4.70;;
18887;SDS011;9576;47.792;9.628;2023-06-24T06:26:41;7.25;;;4.90;;
18887;SDS011;9576;47.792;9.628;2023-06-24T06:29:44;6.82;;;4.05;;
18887;SDS011;9576;47.792;9.628;2023-06-24T06:32:46;7.50;;;4.90;;
18887;SDS011;9576;47.792;9.628;2023-06-24T06:35:48;9.23;;;4.82;;
18887;SDS011;9576;47.792;9.628;2023-06-24T06:38:51;9.80;;;4.90;;
18887;SDS011;9576;47.792;9.628;2023-06-24T06:41:53;12.27;;;4.60;;
18887;SDS011;9576;47.792;9.628;2023-06-24T06:44:55;10.95;;;4.95;;
18887;SDS011;9576;47.792;9.628;2023-06-24T06:47:57;6.53;;;4.13;;
18887;SDS011;9576;47.792;9.628;2023-06-24T06:50:59;13.48;;;4.93;;
18887;SDS011;9576;47.792;9.628;2023-06-24T06:54:02;8.93;;;4.00;;
18887;SDS011;9576;47.792;9.628;2023-06-24T06:57:04;6.25;;;4.53;;
18887;SDS011;9576;47.792;9.628;2023-06-24T07:00:07;10.65;;;5.35;;
18887;SDS011;9576;47.792;9.628;2023-06-24T07:03:10;7.82;;;4.88;;
18887;SDS011;9576;47.792;9.628;2023-06-24T07:06:11;8.25;;;5.40;;
18887;SDS011;9576;47.792;9.628;2023-06-24T07:09:15;10.45;;;4.78;;
18887;SDS011;9576;47.792;9.628;2023-06-24T07:12:17;8.88;;;5.20;;
18887;SDS011;9576;47.792;9.628;2023-06-24T07:15:21;10.63;;;4.60;;
18887;SDS011;9576;47.792;9.628;2023-06-24T07:18:23;8.20;;;4.95;;
18887;SDS011;9576;47.792;9.628;2023-06-24T07:21:27;9.20;;;4.47;;
18887;SDS011;9576;47.792;9.628;2023-06-24T07:24:30;8.48;;;4.05;;
18887;SDS011;9576;47.792;9.628;2023-06-24T07:27:32;6.28;;;4.18;;
18887;SDS011;9576;47.792;9.628;2023-06-24T07:30:34;9.02;;;4.55;;
18887;SDS011;9576;47.792;9.628;2023-06-24T07:33:35;8.75;;;4.30;;
18887;SDS011;9576;47.792;9.628;2023-06-24T07:36:37;7.78;;;4.72;;
18887;SDS011;9576;47.792;9.628;2023-06-24T07:39:41;9.98;;;5.03;;
18887;SDS011;9576;47.792;9.628;2023-06-24T07:42:42;7.43;;;4.25;;
18887;SDS011;9576;47.792;9.628;2023-06-24T07:45:44;8.20;;;4.97;;
18887;SDS011;9576;47.792;9.628;2023-06-24T07:48:46;10.18;;;5.30;;
18887;SDS011;9576;47.792;9.628;2023-06-24T07:51:48;7.43;;;4.57;;
18887;SDS011;9576;47.792;9.628;2023-06-24T07:54:52;7.70;;;4.40;;
18887;SDS011;9576;47.792;9.628;2023-06-24T07:57:54;5.93;;;3.78;;
18887;SDS011;9576;47.792;9.628;2023-06-24T08:00:57;7.15;;;4.72;;
18887;SDS011;9576;47.792;9.628;2023-06-24T08:03:58;9.40;;;4.97;;
18887;SDS011;9576;47.792;9.628;2023-06-24T08:07:00;13.55;;;4.50;;
18887;SDS011;9576;47.792;9.628;2023-06-24T08:10:06;11.57;;;4.70;;
18887;SDS011;9576;47.792;9.628;2023-06-24T08:13:09;6.88;;;4.35;;
18887;SDS011;9576;47.792;9.628;2023-06-24T08:16:10;6.95;;;5.35;;
18887;SDS011;9576;47.792;9.628;2023-06-24T08:19:12;14.98;;;5.65;;
18887;SDS011;9576;47.792;9.628;2023-06-24T08:22:14;16.25;;;5.57;;
18887;SDS011;9576;47.792;9.628;2023-06-24T08:25:18;18.70;;;5.10;;
18887;SDS011;9576;47.792;9.628;2023-06-24T08:28:20;8.30;;;4.57;;
18887;SDS011;9576;47.792;9.628;2023-06-24T08:31:21;13.10;;;5.50;;
18887;SDS011;9576;47.792;9.628;2023-06-24T08:34:25;12.25;;;4.82;;
18887;SDS011;9576;47.792;9.628;2023-06-24T08:37:26;7.43;;;4.60;;
18887;SDS011;9576;47.792;9.628;2023-06-24T08:40:30;18.85;;;5.22;;
18887;SDS011;9576;47.792;9.628;2023-06-24T08:43:32;8.43;;;4.53;;
18887;SDS011;9576;47.792;9.628;2023-06-24T08:46:35;12.02;;;3.97;;
18887;SDS011;9576;47.792;9.628;2023-06-24T08:49:38;7.90;;;5.43;;
18887;SDS011;9576;47.792;9.628;2023-06-24T08:52:48;12.13;;;4.55;;
18887;SDS011;9576;47.792;9.628;2023-06-24T08:55:54;10.00;;;4.40;;
18887;SDS011;9576;47.792;9.628;2023-06-24T08:58:58;5.30;;;3.78;;
18887;SDS011;9576;47.792;9.628;2023-06-24T09:02:00;8.57;;;4.93;;
18887;SDS011;9576;47.792;9.628;2023-06-24T09:05:02;9.55;;;4.90;;
18887;SDS011;9576;47.792;9.628;2023-06-24T09:08:05;7.18;;;4.50;;
18887;SDS011;9576;47.792;9.628;2023-06-24T09:11:09;6.32;;;3.88;;
18887;SDS011;9576;47.792;9.628;2023-06-24T09:14:11;6.35;;;4.07;;
18887;SDS011;9576;47.792;9.628;2023-06-24T09:17:13;6.40;;;3.70;;
18887;SDS011;9576;47.792;9.628;2023-06-24T09:20:15;4.60;;;3.95;;
18887;SDS011;9576;47.792;9.628;2023-06-24T09:26:28;6.65;;;4.22;;
18887;SDS011;9576;47.792;9.628;2023-06-24T09:29:31;9.32;;;3.17;;
18887;SDS011;9576;47.792;9.628;2023-06-24T09:32:34;6.85;;;3.95;;
18887;SDS011;9576;47.792;9.628;2023-06-24T09:35:36;4.43;;;3.67;;
18887;SDS011;9576;47.792;9.628;2023-06-24T09:38:38;20.40;;;4.32;;
18887;SDS011;9576;47.792;9.628;2023-06-24T09:41:42;4.72;;;3.47;;
18887;SDS011;9576;47.792;9.628;2023-06-24T09:44:45;6.68;;;3.67;;
18887;SDS011;9576;47.792;9.628;2023-06-24T09:47:54;5.28;;;3.20;;
18887;SDS011;9576;47.792;9.628;2023-06-24T09:50:59;4.78;;;3.33;;
18887;SDS011;9576;47.792;9.628;2023-06-24T09:54:02;5.60;;;3.60;;
18887;SDS011;9576;47.792;9.628;2023-06-24T09:57:07;7.40;;;3.17;;
18887;SDS011;9576;47.792;9.628;2023-06-24T10:00:10;9.18;;;3.15;;
18887;SDS011;9576;47.792;9.628;2023-06-24T10:03:15;6.40;;;3.92;;
18887;SDS011;9576;47.792;9.628;2023-06-24T10:06:17;7.38;;;3.10;;
18887;SDS011;9576;47.792;9.628;2023-06-24T10:09:19;7.18;;;3.45;;
18887;SDS011;9576;47.792;9.628;2023-06-24T10:12:22;8.82;;;3.70;;
18887;SDS011;9576;47.792;9.628;2023-06-24T10:15:26;4.88;;;3.60;;
18887;SDS011;9576;47.792;9.628;2023-06-24T10:18:31;5.15;;;3.63;;
18887;SDS011;9576;47.792;9.628;2023-06-24T10:21:43;6.30;;;3.10;;
18887;SDS011;9576;47.792;9.628;2023-06-24T10:24:47;9.55;;;3.63;;
18887;SDS011;9576;47.792;9.628;2023-06-24T10:27:51;5.57;;;3.42;;
18887;SDS011;9576;47.792;9.628;2023-06-24T10:30:55;8.82;;;3.75;;
18887;SDS011;9576;47.792;9.628;2023-06-24T10:33:58;4.93;;;3.38;;
18887;SDS011;9576;47.792;9.628;2023-06-24T10:37:01;4.82;;;3.60;;
18887;SDS011;9576;47.792;9.628;2023-06-24T10:40:04;4.88;;;3.08;;
18887;SDS011;9576;47.792;9.628;2023-06-24T10:46:29;5.88;;;3.33;;
18887;SDS011;9576;47.792;9.628;2023-06-24T10:49:34;4.95;;;3.45;;
18887;SDS011;9576;47.792;9.628;2023-06-24T10:52:37;9.20;;;3.47;;
18887;SDS011;9576;47.792;9.628;2023-06-24T10:55:39;7.38;;;3.53;;
18887;SDS011;9576;47.792;9.628;2023-06-24T10:58:55;4.78;;;3.22;;
18887;SDS011;9576;47.792;9.628;2023-06-24T11:01:57;8.90;;;3.72;;
18887;SDS011;9576;47.792;9.628;2023-06-24T11:04:59;5.13;;;3.58;;
18887;SDS011;9576;47.792;9.628;2023-06-24T11:08:02;6.00;;;3.67;;
18887;SDS011;9576;47.792;9.628;2023-06-24T11:11:06;5.22;;;3.10;;
18887;SDS011;9576;47.792;9.628;2023-06-24T11:14:10;11.00;;;3.55;;
18887;SDS011;9576;47.792;9.628;2023-06-24T11:17:12;4.30;;;2.95;;
18887;SDS011;9576;47.792;9.628;2023-06-24T11:20:14;5.20;;;3.58;;
18887;SDS011;9576;47.792;9.628;2023-06-24T11:23:16;4.38;;;3.40;;
18887;SDS011;9576;47.792;9.628;2023-06-24T11:26:18;5.70;;;3.83;;
18887;SDS011;9576;47.792;9.628;2023-06-24T11:29:21;5.47;;;3.50;;
18887;SDS011;9576;47.792;9.628;2023-06-24T11:32:23;7.63;;;3.60;;
18887;SDS011;9576;47.792;9.628;2023-06-24T11:35:25;7.32;;;3.50;;
18887;SDS011;9576;47.792;9.628;2023-06-24T11:38:27;5.93;;;3.35;;
18887;SDS011;9576;47.792;9.628;2023-06-24T11:41:32;8.82;;;3.70;;
18887;SDS011;9576;47.792;9.628;2023-06-24T11:44:35;5.05;;;3.55;;
18887;SDS011;9576;47.792;9.628;2023-06-24T11:47:41;4.75;;;3.45;;
18887;SDS011;9576;47.792;9.628;2023-06-24T11:50:43;5.50;;;3.38;;
18887;SDS011;9576;47.792;9.628;2023-06-24T11:53:45;7.78;;;4.20;;
18887;SDS011;9576;47.792;9.628;2023-06-24T11:56:49;9.15;;;3.50;;
18887;SDS011;9576;47.792;9.628;2023-06-24T11:59:53;5.45;;;3.15;;
18887;SDS011;9576;47.792;9.628;2023-06-24T12:02:56;5.72;;;2.97;;
18887;SDS011;9576;47.792;9.628;2023-06-24T12:05:59;7.15;;;3.45;;
18887;SDS011;9576;47.792;9.628;2023-06-24T12:09:01;5.03;;;2.92;;
18887;SDS011;9576;47.792;9.628;2023-06-24T12:12:03;7.38;;;3.65;;
18887;SDS011;9576;47.792;9.628;2023-06-24T12:15:08;4.57;;;3.20;;
18887;SDS011;9576;47.792;9.628;2023-06-24T12:18:11;4.72;;;3.30;;
18887;SDS011;9576;47.792;9.628;2023-06-24T12:21:13;5.22;;;3.13;;
18887;SDS011;9576;47.792;9.628;2023-06-24T12:24:15;8.02;;;3.40;;
18887;SDS011;9576;47.792;9.628;2023-06-24T12:27:17;4.55;;;2.92;;
18887;SDS011;9576;47.792;9.628;2023-06-24T12:30:21;5.32;;;3.83;;
18887;SDS011;9576;47.792;9.628;2023-06-24T12:33:23;6.60;;;3.05;;
18887;SDS011;9576;47.792;9.628;2023-06-24T12:36:25;3.58;;;2.63;;
18887;SDS011;9576;47.792;9.628;2023-06-24T12:39:26;4.13;;;3.10;;
18887;SDS011;9576;47.792;9.628;2023-06-24T12:42:28;4.50;;;2.95;;
18887;SDS011;9576;47.792;9.628;2023-06-24T12:45:32;4.70;;;3.60;;
18887;SDS011;9576;47.792;9.628;2023-06-24T12:48:34;6.25;;;3.45;;
18887;SDS011;9576;47.792;9.628;2023-06-24T12:51:35;6.80;;;3.58;;
18887;SDS011;9576;47.792;9.628;2023-06-24T12:54:37;4.55;;;3.05;;
18887;SDS011;9576;47.792;9.628;2023-06-24T12:57:39;5.88;;;3.05;;
18887;SDS011;9576;47.792;9.628;2023-06-24T13:00:43;5.68;;;3.65;;
18887;SDS011;9576;47.792;9.628;2023-06-24T13:03:44;8.45;;;3.70;;
18887;SDS011;9576;47.792;9.628;2023-06-24T13:06:47;18.42;;;3.78;;
18887;SDS011;9576;47.792;9.628;2023-06-24T13:09:50;4.43;;;3.30;;
18887;SDS011;9576;47.792;9.628;2023-06-24T13:12:52;4.32;;;3.05;;
18887;SDS011;9576;47.792;9.628;2023-06-24T13:15:55;5.57;;;3.42;;
18887;SDS011;9576;47.792;9.628;2023-06-24T13:18:57;11.82;;;3.63;;
18887;SDS011;9576;47.792;9.628;2023-06-24T13:21:59;7.50;;;3.80;;
18887;SDS011;9576;47.792;9.628;2023-06-24T13:25:01;7.00;;;3.78;;
18887;SDS011;9576;47.792;9.628;2023-06-24T13:28:03;5.35;;;3.88;;
18887;SDS011;9576;47.792;9.628;2023-06-24T13:31:07;19.40;;;4.47;;
18887;SDS011;9576;47.792;9.628;2023-06-24T13:34:09;5.32;;;3.20;;
18887;SDS011;9576;47.792;9.628;2023-06-24T13:37:11;4.25;;;3.22;;
18887;SDS011;9576;47.792;9.628;2023-06-24T13:40:13;7.60;;;3.50;;
18887;SDS011;9576;47.792;9.628;2023-06-24T13:43:15;4.32;;;3.45;;
18887;SDS011;9576;47.792;9.628;2023-06-24T13:46:18;5.05;;;3.33;;
18887;SDS011;9576;47.792;9.628;2023-06-24T13:49:20;6.38;;;3.60;;
18887;SDS011;9576;47.792;9.628;2023-06-24T13:52:22;4.32;;;3.42;;
18887;SDS011;9576;47.792;9.628;2023-06-24T13:55:24;5.90;;;3.05;;
18887;SDS011;9576;47.792;9.628;2023-06-24T13:58:25;4.95;;;3.83;;
18887;SDS011;9576;47.792;9.628;2023-06-24T14:01:29;4.47;;;3.30;;
18887;SDS011;9576;47.792;9.628;2023-06-24T14:04:31;4.67;;;3.30;;
18887;SDS011;9576;47.792;9.628;2023-06-24T14:07:33;21.05;;;4.38;;
18887;SDS011;9576;47.792;9.628;2023-06-24T14:10:35;4.65;;;3.15;;
18887;SDS011;9576;47.792;9.628;2023-06-24T14:13:37;4.88;;;3.25;;
18887;SDS011;9576;47.792;9.628;2023-06-24T14:16:41;5.65;;;3.05;;
18887;SDS011;9576;47.792;9.628;2023-06-24T14:19:43;5.85;;;3.38;;
18887;SDS011;9576;47.792;9.628;2023-06-24T14:22:46;4.43;;;3.22;;
18887;SDS011;9576;47.792;9.628;2023-06-24T14:25:48;6.47;;;3.17;;
18887;SDS011;9576;47.792;9.628;2023-06-24T14:28:50;12.25;;;4.22;;
18887;SDS011;9576;47.792;9.628;2023-06-24T14:31:53;4.50;;;2.92;;
18887;SDS011;9576;47.792;9.628;2023-06-24T14:34:55;5.78;;;3.78;;
18887;SDS011;9576;47.792;9.628;2023-06-24T14:37:57;7.65;;;3.55;;
18887;SDS011;9576;47.792;9.628;2023-06-24T14:40:59;6.15;;;3.85;;
18887;SDS011;9576;47.792;9.628;2023-06-24T14:44:01;6.03;;;3.85;;
18887;SDS011;9576;47.792;9.628;2023-06-24T14:47:04;5.43;;;4.03;;
18887;SDS011;9576;47.792;9.628;2023-06-24T14:50:07;7.40;;;3.70;;
18887;SDS011;9576;47.792;9.628;2023-06-24T14:53:09;14.10;;;3.67;;
18887;SDS011;9576;47.792;9.628;2023-06-24T14:56:11;5.20;;;3.35;;
18887;SDS011;9576;47.792;9.628;2023-06-24T14:59:13;4.45;;;3.20;;
18887;SDS011;9576;47.792;9.628;2023-06-24T15:02:16;6.32;;;3.30;;
18887;SDS011;9576;47.792;9.628;2023-06-24T15:05:18;4.35;;;3.38;;
18887;SDS011;9576;47.792;9.628;2023-06-24T15:08:20;4.80;;;3.35;;
18887;SDS011;9576;47.792;9.628;2023-06-24T15:11:22;5.60;;;3.60;;
18887;SDS011;9576;47.792;9.628;2023-06-24T15:14:24;8.45;;;3.05;;
18887;SDS011;9576;47.792;9.628;2023-06-24T15:17:27;4.82;;;3.63;;
18887;SDS011;9576;47.792;9.628;2023-06-24T15:20:30;6.40;;;3.35;;
18887;SDS011;9576;47.792;9.628;2023-06-24T15:23:32;5.30;;;3.58;;
18887;SDS011;9576;47.792;9.628;2023-06-24T15:26:34;5.55;;;3.42;;
18887;SDS011;9576;47.792;9.628;2023-06-24T15:29:36;28.30;;;3.33;;
18887;SDS011;9576;47.792;9.628;2023-06-24T15:32:39;6.78;;;3.20;;
18887;SDS011;9576;47.792;9.628;2023-06-24T15:35:42;4.97;;;3.58;;
18887;SDS011;9576;47.792;9.628;2023-06-24T15:38:43;15.90;;;4.32;;
18887;SDS011;9576;47.792;9.628;2023-06-24T15:41:46;8.10;;;3.58;;
18887;SDS011;9576;47.792;9.628;2023-06-24T15:44:50;11.07;;;3.83;;
18887;SDS011;9576;47.792;9.628;2023-06-24T15:47:53;7.68;;;3.22;;
18887;SDS011;9576;47.792;9.628;2023-06-24T15:50:55;5.10;;;3.80;;
18887;SDS011;9576;47.792;9.628;2023-06-24T15:53:59;7.18;;;3.58;;
18887;SDS011;9576;47.792;9.628;2023-06-24T15:57:01;15.35;;;3.58;;
18887;SDS011;9576;47.792;9.628;2023-06-24T16:00:03;6.82;;;3.88;;
18887;SDS011;9576;47.792;9.628;2023-06-24T16:03:07;5.07;;;3.30;;
18887;SDS011;9576;47.792;9.628;2023-06-24T16:06:09;6.63;;;3.40;;
18887;SDS011;9576;47.792;9.628;2023-06-24T16:09:11;10.65;;;3.40;;
18887;SDS011;9576;47.792;9.628;2023-06-24T16:12:13;8.43;;;3.38;;
18887;SDS011;9576;47.792;9.628;2023-06-24T16:15:16;5.20;;;2.95;;
18887;SDS011;9576;47.792;9.628;2023-06-24T16:18:20;17.52;;;3.60;;
18887;SDS011;9576;47.792;9.628;2023-06-24T16:21:22;6.13;;;3.27;;
18887;SDS011;9576;47.792;9.628;2023-06-24T16:24:24;5.00;;;3.40;;
18887;SDS011;9576;47.792;9.628;2023-06-24T16:27:27;5.07;;;3.38;;
18887;SDS011;9576;47.792;9.628;2023-06-24T16:30:29;10.60;;;3.28;;
18887;SDS011;9576;47.792;9.628;2023-06-24T16:33:32;4.35;;;3.22;;
18887;SDS011;9576;47.792;9.628;2023-06-24T16:36:34;5.13;;;3.58;;
18887;SDS011;9576;47.792;9.628;2023-06-24T16:39:36;4.43;;;3.40;;
18887;SDS011;9576;47.792;9.628;2023-06-24T16:42:38;4.75;;;3.17;;
18887;SDS011;9576;47.792;9.628;2023-06-24T16:45:40;4.85;;;3.03;;
18887;SDS011;9576;47.792;9.628;2023-06-24T16:48:43;4.18;;;3.22;;
18887;SDS011;9576;47.792;9.628;2023-06-24T16:51:45;8.10;;;3.25;;
18887;SDS011;9576;47.792;9.628;2023-06-24T16:54:47;13.38;;;3.17;;
18887;SDS011;9576;47.792;9.628;2023-06-24T16:57:49;4.25;;;2.60;;
18887;SDS011;9576;47.792;9.628;2023-06-24T17:00:51;5.47;;;3.50;;
18887;SDS011;9576;47.792;9.628;2023-06-24T17:03:54;5.88;;;3.17;;
18887;SDS011;9576;47.792;9.628;2023-06-24T17:06:56;9.32;;;3.38;;
18887;SDS011;9576;47.792;9.628;2023-06-24T17:09:58;5.50;;;4.18;;
18887;SDS011;9576;47.792;9.628;2023-06-24T17:13:00;3.65;;;2.88;;
18887;SDS011;9576;47.792;9.628;2023-06-24T17:16:02;3.65;;;2.92;;
18887;SDS011;9576;47.792;9.628;2023-06-24T17:19:06;18.92;;;3.60;;
18887;SDS011;9576;47.792;9.628;2023-06-24T17:22:08;10.38;;;3.03;;
18887;SDS011;9576;47.792;9.628;2023-06-24T17:25:10;4.82;;;3.35;;
18887;SDS011;9576;47.792;9.628;2023-06-24T17:28:12;4.82;;;3.15;;
18887;SDS011;9576;47.792;9.628;2023-06-24T17:31:14;8.00;;;3.50;;
18887;SDS011;9576;47.792;9.628;2023-06-24T17:34:17;4.47;;;2.95;;
18887;SDS011;9576;47.792;9.628;2023-06-24T17:37:19;8.70;;;3.80;;
18887;SDS011;9576;47.792;9.628;2023-06-24T17:40:21;5.95;;;3.45;;
18887;SDS011;9576;47.792;9.628;2023-06-24T17:43:23;4.95;;;3.40;;
18887;SDS011;9576;47.792;9.628;2023-06-24T17:46:26;5.22;;;3.35;;
18887;SDS011;9576;47.792;9.628;2023-06-24T17:49:29;5.85;;;3.65;;
18887;SDS011;9576;47.792;9.628;2023-06-24T17:52:31;4.72;;;3.55;;
18887;SDS011;9576;47.792;9.628;2023-06-24T17:55:33;6.60;;;4.07;;
18887;SDS011;9576;47.792;9.628;2023-06-24T17:58:36;11.57;;;4.53;;
18887;SDS011;9576;47.792;9.628;2023-06-24T18:01:38;11.23;;;4.75;;
18887;SDS011;9576;47.792;9.628;2023-06-24T18:04:42;7.07;;;4.22;;
18887;SDS011;9576;47.792;9.628;2023-06-24T18:07:43;10.75;;;4.43;;
18887;SDS011;9576;47.792;9.628;2023-06-24T18:10:45;6.05;;;4.20;;
18887;SDS011;9576;47.792;9.628;2023-06-24T18:13:47;9.77;;;4.32;;
18887;SDS011;9576;47.792;9.628;2023-06-24T18:16:49;6.03;;;4.10;;
18887;SDS011;9576;47.792;9.628;2023-06-24T18:19:53;11.55;;;4.38;;
18887;SDS011;9576;47.792;9.628;2023-06-24T18:22:55;10.52;;;3.92;;
18887;SDS011;9576;47.792;9.628;2023-06-24T18:25:57;6.50;;;4.53;;
18887;SDS011;9576;47.792;9.628;2023-06-24T18:28:59;6.43;;;3.85;;
18887;SDS011;9576;47.792;9.628;2023-06-24T18:32:01;10.18;;;4.28;;
18887;SDS011;9576;47.792;9.628;2023-06-24T18:35:05;8.93;;;4.38;;
18887;SDS011;9576;47.792;9.628;2023-06-24T18:38:07;13.27;;;3.88;;
18887;SDS011;9576;47.792;9.628;2023-06-24T18:41:10;6.63;;;3.90;;
18887;SDS011;9576;47.792;9.628;2023-06-24T18:44:11;11.07;;;4.45;;
18887;SDS011;9576;47.792;9.628;2023-06-24T18:47:13;5.97;;;3.65;;